Archival Weather

Yakutsk

Yakutsk, Russia (UEEE)

Report from: Monday, February 6, 2023 7:30 AM JST
Current time: Saturday, June 22, 2024 8:34 AM JST

Current weather – Weather history – Daily summaries
Weather forecast

Present weatherMist
Temperature-42.0°C (-43.6°F)
Dew point-46.0°C (-50.8°F)
Winds 1.9 kts (1 m/s, 2.2 mph) Northwest (320°)
Visibility1.5 mi. (2.4 km)
Altimeter30.21 in.Hg (1023 mB)
Precip. events QF 9:38 AM
Relative humidity65 %
Density altitude-8,054 ft. (-2,455 m)
Remarks No significant changes expected in the next two hours
Flight conditions Instrument Meteorological Conditions
Raw dataUEEE 052230Z 32001MPS 2400 BR NSC M42/M46 Q1023 R23L/490150 NOSIG RMK QFE758
An error has occurred. This application may no longer respond until reloaded. Reload 🗙